.
WxDataArchive / Data Records for 2015-11-01
2015-10-31 November 2015 2015-11-02

Data Records for Sunday, 01 November 2015

Time	Temp	Chill	HIndex	Humid	Dewpt	 Wind 	HiWind	WindDir	Rain 	Barom
-----	----	-----	------	-----	-----	------	------	-------	-----	-----
00:00	52.2	52.2	52.2	92	49.9	1	4	248	0.00	29.730 
00:05	52.2	52.2	52.2	92	49.9	1	3	248	0.00	29.730 
00:10	52.3	52.3	52.3	92	50.0	1	4	248	0.00	29.730 
00:15	52.3	52.3	52.3	92	50.0	0	3	248	0.00	29.721 
00:20	52.3	52.3	52.3	93	50.3	0	3	248	0.00	29.721 
00:25	52.3	52.3	52.3	93	50.3	0	3	248	0.00	29.721 
00:30	52.3	52.3	52.3	93	50.3	0	3	248	0.00	29.718 
00:35	52.3	52.3	52.3	93	50.3	0	3	248	0.00	29.718 
00:40	52.3	52.3	52.3	93	50.3	0	5	248	0.01	29.718 
00:45	52.3	52.3	52.3	93	50.3	0	5	248	0.00	29.722 
00:50	52.3	52.3	52.3	93	50.3	1	3	112	0.00	29.722 
00:55	52.5	52.5	52.5	93	50.5	1	4	112	0.00	29.722 
01:00	52.5	52.5	52.5	94	50.8	1	3	248	0.00	29.724 
01:05	52.5	52.5	52.5	94	50.8	1	3	248	0.00	29.724 
01:10	52.6	52.6	52.6	94	50.9	1	2	248	0.00	29.724 
01:15	52.6	52.6	52.6	94	50.9	1	3	248	0.00	29.727 
01:20	52.6	52.6	52.6	94	50.9	1	4	248	0.00	29.727 
01:25	52.8	52.8	52.8	94	51.1	1	4	248	0.00	29.727 
01:30	52.8	52.8	52.8	94	51.1	1	4	248	0.00	29.732 
01:35	52.8	52.8	52.8	94	51.1	0	3	248	0.00	29.732 
01:40	52.9	52.9	52.9	94	51.2	0	3	248	0.00	29.732 
01:45	52.9	52.9	52.9	94	51.2	0	3	248	0.00	29.735 
01:50	52.9	52.9	52.9	94	51.2	1	3	248	0.00	29.735 
01:55	52.9	52.9	52.9	94	51.2	1	4	248	0.00	29.735 
02:00	52.9	52.9	52.9	94	51.2	1	4	248	0.00	29.735 
02:05	53.2	53.2	53.2	92	50.9	2	6	270	0.00	29.736 
02:10	53.3	53.3	53.3	91	50.7	1	3	248	0.00	29.736 
02:15	53.3	53.3	53.3	91	50.7	1	6	248	0.00	29.745 
02:20	53.5	53.5	53.5	90	50.6	1	4	292	0.00	29.745 
02:25	53.5	53.5	53.5	90	50.6	1	5	292	0.00	29.745 
02:30	53.3	53.3	53.3	89	50.1	2	5	292	0.00	29.749 
02:35	53.3	53.3	53.3	89	50.1	2	5	248	0.00	29.749 
02:40	53.3	53.3	53.3	88	49.8	3	6	248	0.00	29.749 
02:45	53.2	53.2	53.2	87	49.4	3	6	270	0.00	29.765 
02:50	53.1	53.1	53.1	84	48.4	4	9	292	0.00	29.765 
02:55	53.1	53.1	53.1	83	48.1	2	6	292	0.00	29.765 
03:00	53.1	53.1	53.1	81	47.4	4	8	270	0.00	29.764 
03:05	53.1	53.1	53.1	79	46.8	4	7	270	0.00	29.764 
03:10	52.9	52.9	52.9	79	46.6	1	7	270	0.00	29.764 
03:15	52.8	52.8	52.8	78	46.1	1	4	270	0.00	29.759 
03:20	52.6	52.6	52.6	78	45.9	1	3	270	0.00	29.759 
03:25	52.5	52.5	52.5	79	46.2	0	3	270	0.00	29.759 
03:30	52.2	52.2	52.2	79	45.9	0	3	270	0.00	29.761 
03:35	52.0	52.0	52.0	81	46.4	1	4	248	0.00	29.761 
03:40	51.9	51.9	51.9	81	46.3	1	3	248	0.00	29.761 
03:45	51.7	51.7	51.7	82	46.4	1	4	248	0.00	29.765 
03:50	51.6	51.6	51.6	82	46.3	1	4	248	0.00	29.765 
03:55	51.4	51.4	51.4	82	46.1	0	3	248	0.00	29.765 
04:00	51.3	51.3	51.3	82	46.0	0	3	248	0.00	29.765 
04:05	51.0	51.0	51.0	82	45.7	0	3	248	0.00	29.765 
04:10	50.8	50.8	50.8	83	45.8	0	2	248	0.00	29.765 
04:15	50.7	50.7	50.7	83	45.7	0	2	248	0.00	29.768 
04:20	50.5	50.5	50.5	84	45.8	0	3	248	0.00	29.768 
04:25	50.5	50.5	50.5	84	45.8	0	2	248	0.00	29.768 
04:30	50.4	50.4	50.4	84	45.7	0	4	248	0.00	29.777 
04:35	50.2	50.2	50.2	84	45.6	0	2	248	0.00	29.777 
04:40	50.1	50.1	50.1	85	45.8	0	2	248	0.00	29.777 
04:45	50.1	50.1	50.1	85	45.8	0	2	248	0.00	29.786 
04:50	50.1	50.1	50.1	85	45.8	0	3	248	0.00	29.786 
04:55	49.9	49.9	49.9	85	45.6	0	3	248	0.00	29.786 
05:00	49.9	49.9	49.9	86	45.9	0	3	248	0.00	29.800 
05:05	49.8	49.8	49.8	86	45.8	1	3	248	0.00	29.800 
05:10	49.8	49.8	49.8	86	45.8	0	2	248	0.00	29.800 
05:15	49.6	49.6	49.6	86	45.6	0	2	248	0.00	29.795 
05:20	49.5	49.5	49.5	86	45.5	1	3	248	0.00	29.795 
05:25	49.5	49.5	49.5	87	45.8	1	3	248	0.00	29.795 
05:30	49.5	49.5	49.5	87	45.8	1	4	248	0.00	29.798 
05:35	49.4	49.4	49.4	87	45.7	1	4	248	0.00	29.798 
05:40	49.4	49.4	49.4	87	45.7	1	4	248	0.00	29.798 
05:45	49.2	49.2	49.2	87	45.5	0	2	248	0.00	29.803 
05:50	49.2	49.2	49.2	87	45.5	1	4	248	0.00	29.803 
05:55	49.1	49.1	49.1	87	45.4	0	3	248	0.00	29.803 
06:00	49.1	49.1	49.1	87	45.4	1	5	248	0.00	29.806 
06:05	48.9	48.9	48.9	87	45.2	0	3	248	0.00	29.806 
06:10	48.9	48.9	48.9	87	45.2	1	3	248	0.00	29.806 
06:15	48.8	48.8	48.8	88	45.4	1	5	248	0.00	29.813 
06:20	48.8	48.8	48.8	88	45.4	0	2	292	0.00	29.813 
06:25	48.6	48.6	48.6	88	45.2	1	3	292	0.00	29.813 
06:30	48.6	48.6	48.6	88	45.2	1	3	270	0.00	29.818 
06:35	48.5	48.5	48.5	88	45.1	0	2	270	0.00	29.818 
06:40	48.3	48.3	48.3	88	44.9	0	3	270	0.00	29.818 
06:45	48.3	48.3	48.3	88	44.9	0	2	270	0.00	29.817 
06:50	48.2	48.2	48.2	88	44.8	0	2	270	0.00	29.817 
06:55	48.2	48.2	48.2	88	44.8	0	2	270	0.00	29.817 
07:00	48.0	48.0	48.0	88	44.6	0	3	270	0.00	29.817 
07:05	48.0	48.0	48.0	88	44.6	0	2	270	0.00	29.817 
07:10	48.0	48.0	48.0	89	44.9	1	4	248	0.00	29.817 
07:15	47.9	47.9	47.9	89	44.8	0	2	248	0.00	29.822 
07:20	47.9	47.9	47.9	89	44.8	1	4	248	0.00	29.822 
07:25	47.9	47.9	47.9	89	44.8	1	4	248	0.00	29.822 
07:30	47.9	47.9	47.9	89	44.8	0	4	248	0.00	29.832 
07:35	47.9	47.9	47.9	89	44.8	1	4	248	0.00	29.832 
07:40	47.9	47.9	47.9	89	44.8	1	3	248	0.00	29.832 
07:45	48.0	48.0	48.0	90	45.2	1	3	248	0.00	29.835 
07:50	48.0	48.0	48.0	90	45.2	0	2	248	0.00	29.835 
07:55	48.2	48.2	48.2	90	45.4	1	4	248	0.00	29.835 
08:00	48.3	48.3	48.3	90	45.5	1	4	248	0.00	29.845 
08:05	48.5	48.5	48.5	90	45.7	1	4	248	0.00	29.845 
08:10	48.6	48.6	48.6	90	45.8	1	5	248	0.00	29.845 
08:15	48.8	48.8	48.8	89	45.7	1	4	248	0.00	29.848 
08:20	48.9	48.9	48.9	89	45.8	2	6	248	0.00	29.848 
08:25	49.1	49.1	49.1	89	46.0	1	5	248	0.00	29.848 
08:30	49.2	49.2	49.2	89	46.1	1	5	248	0.00	29.852 
08:35	49.2	49.2	49.2	89	46.1	1	7	248	0.00	29.852 
08:40	49.4	49.4	49.4	88	46.0	1	4	248	0.00	29.852 
08:45	49.5	49.5	49.5	88	46.1	1	3	248	0.00	29.858 
08:50	49.8	49.8	49.8	88	46.4	1	3	248	0.00	29.858 
08:55	50.1	50.1	50.1	88	46.7	1	4	248	0.00	29.858 
09:00	50.4	50.4	50.4	87	46.7	1	3	248	0.00	29.864 
09:05	50.7	50.7	50.7	86	46.7	1	5	248	0.00	29.864 
09:10	50.8	50.8	50.8	85	46.5	2	6	292	0.00	29.864 
09:15	51.1	51.1	51.1	84	46.4	2	4	248	0.00	29.870 
09:20	51.4	51.4	51.4	84	46.7	2	6	248	0.00	29.870 
09:25	51.7	51.7	51.7	84	47.0	1	4	270	0.00	29.870 
09:30	52.0	52.0	52.0	83	47.0	2	5	270	0.00	29.876 
09:35	52.3	52.3	52.3	82	47.0	2	5	248	0.00	29.876 
09:40	52.6	52.6	52.6	81	46.9	2	7	248	0.00	29.876 
09:45	53.1	53.1	53.1	81	47.4	1	4	270	0.00	29.875 
09:50	53.2	53.2	53.2	79	46.9	3	5	248	0.00	29.875 
09:55	53.5	53.5	53.5	79	47.1	3	6	270	0.00	29.875 
10:00	53.8	53.8	53.8	78	47.1	2	6	270	0.00	29.877 
10:05	54.1	54.1	54.1	77	47.0	2	7	270	0.00	29.877 
10:10	54.2	54.2	54.2	77	47.1	2	4	270	0.00	29.877 
10:15	54.4	54.4	54.4	76	47.0	2	6	292	0.00	29.885 
10:20	54.7	54.7	54.7	76	47.3	1	4	292	0.00	29.885 
10:25	54.8	54.8	54.8	74	46.7	3	7	270	0.00	29.885 
10:30	55.1	55.1	55.1	74	47.0	1	5	270	0.00	29.891 
10:35	55.4	55.4	55.4	74	47.3	1	5	270	0.00	29.891 
10:40	55.7	55.7	55.7	73	47.2	2	5	270	0.00	29.891 
10:45	56.0	56.0	56.0	73	47.5	1	5	248	0.00	29.893 
10:50	56.3	56.3	56.3	71	47.0	2	5	248	0.00	29.893 
10:55	56.5	56.5	56.5	70	46.8	2	6	292	0.00	29.893 
11:00	56.5	56.5	56.5	71	47.2	2	5	270	0.00	29.901 
11:05	56.7	56.7	56.7	69	46.6	2	6	248	0.00	29.901 
11:10	56.9	56.9	56.9	68	46.4	2	5	270	0.00	29.901 
11:15	57.2	57.2	57.2	67	46.3	1	4	270	0.00	29.895 
11:20	57.3	57.3	57.3	67	46.4	2	6	248	0.00	29.895 
11:25	57.6	57.6	57.6	66	46.3	2	6	270	0.00	29.895 
11:30	58.0	58.0	58.0	64	45.9	2	6	270	0.00	29.900 
11:35	58.1	58.1	58.1	63	45.6	2	6	270	0.00	29.900 
11:40	58.3	58.3	58.3	62	45.3	3	7	248	0.00	29.900 
11:45	58.4	58.4	58.4	63	45.9	1	6	270	0.00	29.901 
11:50	58.7	58.7	58.7	64	46.6	1	4	248	0.00	29.901 
11:55	59.2	59.2	59.2	61	45.8	1	4	270	0.00	29.901 
12:00	59.3	59.3	59.3	59	45.0	2	4	248	0.00	29.890 
12:05	59.3	59.3	59.3	58	44.5	2	7	248	0.00	29.890 
12:10	59.5	59.5	59.5	58	44.7	2	5	248	0.00	29.890 
12:15	59.6	59.6	59.6	57	44.3	2	5	292	0.00	29.891 
12:20	59.8	59.8	59.8	57	44.5	3	7	270	0.00	29.891 
12:25	59.9	59.9	59.9	57	44.6	2	6	248	0.00	29.891 
12:30	60.1	60.1	60.1	57	44.8	1	4	248	0.00	29.893 
12:35	60.5	60.5	60.5	56	44.7	1	6	270	0.00	29.893 
12:40	60.7	60.7	60.7	54	44.0	2	5	248	0.00	29.893 
12:45	60.9	60.9	60.9	53	43.7	2	6	292	0.00	29.886 
12:50	61.3	61.3	61.3	52	43.5	2	6	248	0.00	29.886 
12:55	61.5	61.5	61.5	52	43.7	2	5	270	0.00	29.886 
13:00	61.6	61.6	61.6	52	43.8	2	6	248	0.00	29.883 
13:05	61.8	61.8	61.8	50	43.0	3	7	270	0.00	29.883 
13:10	62.1	62.1	62.1	49	42.7	2	9	270	0.00	29.883 
13:15	62.4	62.4	62.4	53	45.0	2	5	292	0.00	29.879 
13:20	62.6	62.6	62.6	45	41.0	3	7	292	0.00	29.879 
13:25	62.7	62.7	62.7	45	41.0	2	7	292	0.00	29.879 
13:30	63.1	63.1	63.1	44	40.8	2	7	270	0.00	29.878 
13:35	63.1	63.1	63.1	44	40.8	2	9	270	0.00	29.878 
13:40	63.2	63.2	63.2	43	40.3	3	7	270	0.00	29.878 
13:45	63.2	63.2	63.2	43	40.3	3	6	270	0.00	29.875 
13:50	63.4	63.4	63.4	43	40.5	3	5	270	0.00	29.875 
13:55	63.4	63.4	63.4	43	40.5	2	6	270	0.00	29.875 
14:00	63.7	63.7	63.7	43	40.8	2	6	248	0.00	29.876 
14:05	64.0	64.0	64.0	40	39.2	2	5	248	0.00	29.876 
14:10	64.3	64.3	64.3	39	38.8	3	6	270	0.00	29.876 
14:15	64.3	64.3	64.3	39	38.8	3	9	292	0.00	29.876 
14:20	64.5	64.5	64.5	37	37.6	3	6	270	0.00	29.876 
14:25	64.3	64.3	64.3	37	37.5	4	7	292	0.00	29.876 
14:30	64.3	64.3	64.3	38	38.1	4	10	270	0.00	29.881 
14:35	64.5	64.5	64.5	36	36.9	3	6	270	0.00	29.881 
14:40	64.7	64.7	64.7	36	37.1	3	6	270	0.00	29.881 
14:45	64.8	64.8	64.8	36	37.2	3	10	270	0.00	29.875 
14:50	65.0	65.0	65.0	36	37.4	2	7	270	0.00	29.875 
14:55	65.3	65.3	65.3	35	36.9	3	7	292	0.00	29.875 
15:00	65.5	65.5	65.5	35	37.1	1	4	248	0.00	29.874 
15:05	65.8	65.8	65.8	33	35.9	2	6	248	0.00	29.874 
15:10	65.8	65.8	65.8	31	34.3	2	6	270	0.00	29.874 
15:15	65.8	65.8	65.8	31	34.3	3	5	292	0.00	29.883 
15:20	65.6	65.6	65.6	30	33.3	2	7	292	0.00	29.883 
15:25	65.5	65.5	65.5	33	35.6	2	6	292	0.00	29.883 
15:30	65.5	65.5	65.5	33	35.6	2	4	292	0.00	29.882 
15:35	65.5	65.5	65.5	35	37.1	2	5	292	0.00	29.882 
15:40	65.5	65.5	65.5	32	34.9	3	7	292	0.00	29.882 
15:45	65.5	65.5	65.5	34	36.4	1	4	292	0.00	29.886 
15:50	65.5	65.5	65.5	32	34.9	1	5	270	0.00	29.886 
15:55	65.3	65.3	65.3	31	33.9	3	6	270	0.00	29.886 
16:00	65.0	65.0	65.0	30	32.8	4	7	270	0.00	29.897 
16:05	65.0	65.0	65.0	31	33.6	3	6	270	0.00	29.897 
16:10	65.0	65.0	65.0	33	35.2	0	3	270	0.00	29.897 
16:15	65.0	65.0	65.0	33	35.2	1	3	270	0.00	29.902 
16:20	65.0	65.0	65.0	33	35.2	1	4	270	0.00	29.902 
16:25	65.0	65.0	65.0	33	35.2	1	4	270	0.00	29.902 
16:30	64.7	64.7	64.7	33	34.9	2	4	292	0.00	29.906 
16:35	64.5	64.5	64.5	33	34.8	2	4	292	0.00	29.906 
16:40	64.3	64.3	64.3	34	35.3	2	4	292	0.00	29.906 
16:45	64.2	64.2	64.2	35	36.0	1	4	292	0.00	29.912 
16:50	64.0	64.0	64.0	35	35.8	1	2	292	0.00	29.912 
16:55	63.9	63.9	63.9	35	35.7	1	4	248	0.00	29.912 
17:00	63.9	63.9	63.9	37	37.1	0	4	248	0.00	29.916 
17:05	63.5	63.5	63.5	37	36.8	1	4	270	0.00	29.916 
17:10	63.2	63.2	63.2	38	37.2	0	1	270	0.00	29.916 
17:15	62.9	62.9	62.9	40	38.2	0	1	270	0.00	29.927 
17:20	62.6	62.6	62.6	40	37.9	0	1	270	0.00	29.927 
17:25	62.3	62.3	62.3	42	38.9	0	1	270	0.00	29.927 
17:30	61.8	61.8	61.8	43	39.1	0	1	270	0.00	29.935 
17:35	61.5	61.5	61.5	43	38.8	0	1	270	0.00	29.935 
17:40	61.2	61.2	61.2	44	39.1	0	1	270	0.00	29.935 
17:45	60.7	60.7	60.7	46	39.8	0	1	270	0.00	29.939 
17:50	60.4	60.4	60.4	47	40.1	0	1	270	0.00	29.939 
17:55	60.1	60.1	60.1	48	40.3	0	1	270	0.00	29.939 
18:00	59.8	59.8	59.8	49	40.6	0	0	---	0.00	29.952 
18:05	59.5	59.5	59.5	50	40.8	0	0	---	0.00	29.952 
18:10	59.2	59.2	59.2	50	40.6	0	1	270	0.00	29.952 
18:15	58.9	58.9	58.9	51	40.8	0	1	270	0.00	29.963 
18:20	58.6	58.6	58.6	52	41.0	0	0	---	0.00	29.963 
18:25	58.3	58.3	58.3	52	40.8	0	1	270	0.00	29.963 
18:30	58.0	58.0	58.0	53	41.0	0	0	---	0.00	29.968 
18:35	57.5	57.5	57.5	54	41.0	0	0	---	0.00	29.968 
18:40	57.3	57.3	57.3	54	40.8	0	1	270	0.00	29.968 
18:45	57.0	57.0	57.0	55	41.0	0	0	---	0.00	29.973 
18:50	56.9	56.9	56.9	56	41.4	0	1	270	0.00	29.973 
18:55	56.6	56.6	56.6	57	41.5	0	0	---	0.00	29.973 
19:00	56.6	56.6	56.6	57	41.5	0	0	---	0.00	29.975 
19:05	56.5	56.5	56.5	58	41.9	0	1	270	0.00	29.975 
19:10	56.5	56.5	56.5	58	41.9	0	1	270	0.00	29.975 
19:15	56.5	56.5	56.5	58	41.9	0	1	270	0.00	29.980 
19:20	56.5	56.5	56.5	58	41.9	0	1	270	0.00	29.980 
19:25	56.3	56.3	56.3	58	41.7	0	0	---	0.00	29.980 
19:30	56.0	56.0	56.0	58	41.4	0	0	---	0.00	29.987 
19:35	55.7	55.7	55.7	59	41.6	0	0	---	0.00	29.987 
19:40	55.4	55.4	55.4	60	41.7	0	0	---	0.00	29.987 
19:45	55.1	55.1	55.1	61	41.9	0	0	---	0.00	29.990 
19:50	55.0	55.0	55.0	61	41.8	0	1	270	0.00	29.990 
19:55	54.7	54.7	54.7	62	41.9	0	0	---	0.00	29.990 
20:00	54.4	54.4	54.4	62	41.7	0	0	---	0.00	29.992 
20:05	54.1	54.1	54.1	63	41.8	0	0	---	0.00	29.992 
20:10	53.8	53.8	53.8	63	41.5	0	0	---	0.00	29.992 
20:15	53.3	53.3	53.3	65	41.8	0	0	---	0.00	29.996 
20:20	52.9	52.9	52.9	66	41.9	0	0	---	0.00	29.996 
20:25	52.5	52.5	52.5	67	41.9	0	0	---	0.00	29.996 
20:30	52.3	52.3	52.3	68	42.1	0	0	---	0.00	30.001 
20:35	51.9	51.9	51.9	69	42.1	0	0	---	0.00	30.001 
20:40	51.4	51.4	51.4	70	41.9	0	0	---	0.00	30.001 
20:45	51.0	51.0	51.0	71	41.9	0	0	---	0.00	30.001 
20:50	50.7	50.7	50.7	71	41.6	0	0	---	0.00	30.001 
20:55	50.4	50.4	50.4	73	42.1	0	0	---	0.00	30.001 
21:00	50.1	50.1	50.1	74	42.1	0	0	---	0.00	30.004 
21:05	50.1	50.1	50.1	75	42.5	0	0	---	0.00	30.004 
21:10	49.9	49.9	49.9	76	42.6	0	0	---	0.00	30.004 
21:15	49.9	49.9	49.9	77	43.0	0	0	---	0.00	30.003 
21:20	49.9	49.9	49.9	78	43.3	0	0	---	0.00	30.003 
21:25	49.9	49.9	49.9	79	43.6	0	0	---	0.00	30.003 
21:30	49.9	49.9	49.9	79	43.6	0	0	---	0.00	30.003 
21:35	50.1	50.1	50.1	81	44.5	0	0	---	0.00	30.003 
21:40	50.2	50.2	50.2	81	44.6	0	0	---	0.00	30.003 
21:45	50.4	50.4	50.4	82	45.1	0	0	---	0.00	30.006 
21:50	50.5	50.5	50.5	82	45.2	0	0	---	0.00	30.006 
21:55	50.7	50.7	50.7	82	45.4	0	1	270	0.00	30.006 
22:00	51.0	51.0	51.0	82	45.7	0	0	---	0.00	30.003 
22:05	51.0	51.0	51.0	82	45.7	0	0	---	0.00	30.003 
22:10	51.1	51.1	51.1	82	45.8	0	0	---	0.00	30.003 
22:15	51.3	51.3	51.3	82	46.0	0	0	---	0.00	29.999 
22:20	51.1	51.1	51.1	82	45.8	0	0	---	0.00	29.999 
22:25	51.1	51.1	51.1	82	45.8	0	0	---	0.00	29.999 
22:30	51.1	51.1	51.1	82	45.8	0	0	---	0.00	29.998 
22:35	51.1	51.1	51.1	82	45.8	0	0	---	0.00	29.998 
22:40	51.0	51.0	51.0	82	45.7	0	0	---	0.00	29.998 
22:45	50.8	50.8	50.8	83	45.8	0	0	---	0.00	29.996 
22:50	51.0	51.0	51.0	83	46.0	0	0	---	0.00	29.996 
22:55	51.0	51.0	51.0	83	46.0	0	0	---	0.00	29.996 
23:00	50.8	50.8	50.8	83	45.8	0	0	---	0.00	29.996 
23:05	50.5	50.5	50.5	83	45.5	0	0	---	0.00	29.996 
23:10	50.2	50.2	50.2	83	45.2	0	0	---	0.00	29.996 
23:15	49.9	49.9	49.9	83	44.9	0	0	---	0.00	29.997 
23:20	49.6	49.6	49.6	83	44.7	0	0	---	0.00	29.997 
23:25	49.5	49.5	49.5	84	44.9	0	0	---	0.00	29.997 
23:30	49.2	49.2	49.2	84	44.6	0	0	---	0.00	29.999 
23:35	49.1	49.1	49.1	84	44.5	0	0	---	0.00	29.999 
23:40	48.8	48.8	48.8	85	44.5	0	0	---	0.00	29.999 
23:45	48.6	48.6	48.6	85	44.3	0	0	---	0.00	29.999 
23:50	48.3	48.3	48.3	85	44.0	0	0	---	0.00	29.999 
23:55	48.2	48.2	48.2	86	44.2	0	0	---	0.00	29.999 

CoCoRaHS
IN-AL-39
A2 Web Hosting
Creative Commons License
GoDaddy
search engine by freefind advanced

loaded 2018-11-21 01:14:12 • last modified 2010-11-18 10:43:29
Privacy PolicyDisclaimer
• wx.awcolley.com is powered by PmWiki v.2002016 •
• all content (unless otherwise noted) © 2018 A W Colley